Antlers, Oklahoma
Current Conditions -  °F | °C
As of 8:35 AM on Friday 31 Oct 2014 (Local Time) from KHHW Reporting Station
Clear Clear  
Wind Chill: 54°   Ceiling: Unl
Heat Index: 54°   Visibility: 10mi
Dew Point: 41°   Wind: 9mph
Humidity: 63%   Direction: 360°N
Pressure: 30.26"   Gusts: NA
Location:  34.23°N, 95.62°W
Report Text: KHHW 311335Z AUTO 36008KT 10SM CLR 12/05 A3026 RMK AO2 T01200052
Loading
Personal Weather Stations






























Interactive Weather Map New forecast layout! Learn more

10-Day Weather Forecast

Advertisements
Track Severe Weather on mobile